Butler, Minnesota
Current Conditions -  °F | °C
As of 3:35 PM on Friday 24 Oct 2014 (Local Time) from KADC Reporting Station
Clear Clear  
Wind Chill: 70°   Ceiling: Unl
Heat Index: 70°   Visibility: 10mi
Dew Point: 43°   Wind: 12mph
Humidity: 38%   Direction: 250°WSW
Pressure: 29.8"   Gusts: 17mph
Location:  46.5882°N, 95.4075°W
Report Text: KADC 242035Z AUTO 25010G15KT 10SM CLR 21/06 A2980 RMK AO2
Loading
Personal Weather Stations






























Interactive Weather Map
Tropical Storm Tracking
New forecast layout! Learn more

10-Day Weather Forecast

Advertisements
Track Severe Weather on mobile